Terminal Aerodrome Forecast
Issued by NWS

Home | Current Version | Previous Version | Text Only | Print | Product List | Glossary On
Versions: 1 2 3 4 5 6 7 8 9 10 11 12 13 14
000
FTUS43 KLSX 280900 AAA
TAFUIN
TAF AMD
KUIN 280954Z 2810/2906 30008KT P6SM OVC016
     FM281200 27005KT P6SM BKN250
     FM282300 VRB03KT P6SM SCT120=

USA.gov is the U.S. government's official web portal to all federal, state and local government web resources and services.